Pagrindinis puslapis
METAR-TAF:

METAR-TAF

Oro uostai :

Sanya, Kinija

platuma: 18-18N, ilguma: 109-24E, Aukštis: 27 m

Dabartinis oras

Ataskaita buvo paskelbta 49 minutes, ne 12:00 UTC
Vėjas 8 kt iš Rytų
Temperatūra 24°C
Drėgmė 78%
Slėgis 1019 hPa
Matomumas 10 km arba daugiau
nėra debesų žemiau 1500 m ir nėra kamuolinių lietaus debesų

METAR: ZJSY 131200Z 09004MPS CAVOK 24/20 Q1019 NOSIG

Laikas: 20:49 (12:49 UTC)

Prognozė

Ataskaita buvo paskelbta 3 valandos ir 47 minutes, ne 09:02 UTC
Prognozė galioja nuo 13 metu 12 UTC su 14 metu 12 UTC
Vėjas 8 kt iš Rytų
Matomumas 10 km arba daugiau
Mažai debesys ne aukštis 2000 ft

TAF: ZJSY 130902Z 1312/1412 09004MPS 9999 FEW020 TX28/1406Z TN19/1321Z

Orai ataskaitas ir orų prognozės (METAR, TAF).

turimą stotys yra geltonos ir raudonos taškus žemėlapyje.

Perkelti pele per norėdami pamatyti stoties vardą.

Tada spustelėkite, norėdami matyti oro stebėjimo ir prognozės.

Norėdami pakeisti žemėlapį: spustelėkite ant žalios mygtukų su juodo kryžiaus žemyn,; žalią mygtuką su brūkšneliu, jei norite nutolinti; arba žalių rodyklių gretimoms žemėlapius.


METAR-TAF: